Aviation Digital Data Service (ADDS)

Output produced by METARs form (1620 UTC 26 September 2017)
found at http://bcaws.aviationweather.gov/adds/metars/
 
METAR text: KSQL 261547Z 00000KT 10SM FEW180 18/14 A2987
Conditions at: KSQL (SAN CARLOS AIRPO, CA, US) observed 1547 UTC 26 September 2017
Temperature: 18.0°C (64°F)
Dewpoint: 14.0°C (57°F) [RH = 77%]
Pressure (altimeter): 29.87 inches Hg (1011.6 mb)
Winds: calm
Visibility: 10 or more miles (16+ km)
Ceiling: at least 12,000 feet AGL
Clouds: few clouds at 18000 feet AGL
Weather: no significant weather observed at this time